sensor_id;sensor_type;location;lat;lon;timestamp;P1;durP1;ratioP1;P2;durP2;ratioP2
49834;SDS011;35729;52.090;13.162;2023-04-09T00:00:13;52.40;;;36.55;;
49834;SDS011;35729;52.090;13.162;2023-04-09T00:02:42;51.38;;;36.72;;
49834;SDS011;35729;52.090;13.162;2023-04-09T00:05:10;53.40;;;38.10;;
49834;SDS011;35729;52.090;13.162;2023-04-09T00:07:39;52.20;;;37.95;;
49834;SDS011;35729;52.090;13.162;2023-04-09T00:10:07;53.50;;;36.60;;
49834;SDS011;35729;52.090;13.162;2023-04-09T00:12:36;52.67;;;36.65;;
49834;SDS011;35729;52.090;13.162;2023-04-09T00:15:05;54.35;;;37.65;;
49834;SDS011;35729;52.090;13.162;2023-04-09T00:17:37;56.03;;;37.42;;
49834;SDS011;35729;52.090;13.162;2023-04-09T00:20:06;54.25;;;38.55;;
49834;SDS011;35729;52.090;13.162;2023-04-09T00:22:35;55.13;;;36.22;;
49834;SDS011;35729;52.090;13.162;2023-04-09T00:25:04;50.35;;;38.08;;
49834;SDS011;35729;52.090;13.162;2023-04-09T00:27:33;57.83;;;39.67;;
49834;SDS011;35729;52.090;13.162;2023-04-09T00:30:02;60.63;;;41.10;;
49834;SDS011;35729;52.090;13.162;2023-04-09T00:32:31;57.28;;;40.20;;
49834;SDS011;35729;52.090;13.162;2023-04-09T00:35:02;56.80;;;41.33;;
49834;SDS011;35729;52.090;13.162;2023-04-09T00:37:31;69.53;;;45.22;;
49834;SDS011;35729;52.090;13.162;2023-04-09T00:40:00;66.07;;;44.97;;
49834;SDS011;35729;52.090;13.162;2023-04-09T00:42:30;61.40;;;41.83;;
49834;SDS011;35729;52.090;13.162;2023-04-09T00:44:59;62.50;;;43.60;;
49834;SDS011;35729;52.090;13.162;2023-04-09T00:47:27;62.25;;;42.58;;
49834;SDS011;35729;52.090;13.162;2023-04-09T00:49:57;65.40;;;44.17;;
49834;SDS011;35729;52.090;13.162;2023-04-09T00:52:28;71.80;;;47.05;;
49834;SDS011;35729;52.090;13.162;2023-04-09T00:54:58;65.60;;;45.20;;
49834;SDS011;35729;52.090;13.162;2023-04-09T00:57:27;62.08;;;43.72;;
49834;SDS011;35729;52.090;13.162;2023-04-09T00:59:56;67.18;;;43.53;;
49834;SDS011;35729;52.090;13.162;2023-04-09T01:02:25;64.32;;;43.92;;
49834;SDS011;35729;52.090;13.162;2023-04-09T01:04:54;66.70;;;45.20;;
49834;SDS011;35729;52.090;13.162;2023-04-09T01:07:25;70.53;;;48.20;;
49834;SDS011;35729;52.090;13.162;2023-04-09T01:10:10;73.35;;;48.40;;
49834;SDS011;35729;52.090;13.162;2023-04-09T01:12:45;68.70;;;48.63;;
49834;SDS011;35729;52.090;13.162;2023-04-09T01:15:21;73.88;;;50.00;;
49834;SDS011;35729;52.090;13.162;2023-04-09T01:17:55;74.38;;;47.92;;
49834;SDS011;35729;52.090;13.162;2023-04-09T01:20:33;68.43;;;46.78;;
49834;SDS011;35729;52.090;13.162;2023-04-09T01:25:43;74.82;;;49.22;;
49834;SDS011;35729;52.090;13.162;2023-04-09T01:28:24;69.78;;;47.90;;
49834;SDS011;35729;52.090;13.162;2023-04-09T01:30:59;70.75;;;46.53;;
49834;SDS011;35729;52.090;13.162;2023-04-09T01:33:31;68.55;;;46.15;;
49834;SDS011;35729;52.090;13.162;2023-04-09T01:36:00;67.20;;;45.75;;
49834;SDS011;35729;52.090;13.162;2023-04-09T01:38:31;66.55;;;44.58;;
49834;SDS011;35729;52.090;13.162;2023-04-09T01:41:02;64.28;;;43.75;;
49834;SDS011;35729;52.090;13.162;2023-04-09T01:43:33;62.13;;;43.08;;
49834;SDS011;35729;52.090;13.162;2023-04-09T01:46:04;66.88;;;43.00;;
49834;SDS011;35729;52.090;13.162;2023-04-09T01:48:32;61.28;;;41.72;;
49834;SDS011;35729;52.090;13.162;2023-04-09T01:51:01;60.70;;;41.28;;
49834;SDS011;35729;52.090;13.162;2023-04-09T01:53:30;60.00;;;40.08;;
49834;SDS011;35729;52.090;13.162;2023-04-09T01:55:58;56.05;;;37.67;;
49834;SDS011;35729;52.090;13.162;2023-04-09T01:58:27;56.47;;;39.53;;
49834;SDS011;35729;52.090;13.162;2023-04-09T02:01:02;55.13;;;37.80;;
49834;SDS011;35729;52.090;13.162;2023-04-09T02:03:38;54.10;;;35.03;;
49834;SDS011;35729;52.090;13.162;2023-04-09T02:06:12;51.50;;;36.13;;
49834;SDS011;35729;52.090;13.162;2023-04-09T02:08:43;50.45;;;34.72;;
49834;SDS011;35729;52.090;13.162;2023-04-09T02:11:13;49.00;;;33.95;;
49834;SDS011;35729;52.090;13.162;2023-04-09T02:13:42;49.75;;;35.15;;
49834;SDS011;35729;52.090;13.162;2023-04-09T02:16:15;47.65;;;32.42;;
49834;SDS011;35729;52.090;13.162;2023-04-09T02:18:44;46.78;;;33.22;;
49834;SDS011;35729;52.090;13.162;2023-04-09T02:21:12;48.20;;;33.50;;
49834;SDS011;35729;52.090;13.162;2023-04-09T02:23:42;52.47;;;33.75;;
49834;SDS011;35729;52.090;13.162;2023-04-09T02:26:11;43.80;;;30.67;;
49834;SDS011;35729;52.090;13.162;2023-04-09T02:28:39;43.92;;;30.88;;
49834;SDS011;35729;52.090;13.162;2023-04-09T02:31:07;45.72;;;31.15;;
49834;SDS011;35729;52.090;13.162;2023-04-09T02:33:38;46.70;;;31.48;;
49834;SDS011;35729;52.090;13.162;2023-04-09T02:36:09;43.90;;;29.38;;
49834;SDS011;35729;52.090;13.162;2023-04-09T02:38:39;41.03;;;29.05;;
49834;SDS011;35729;52.090;13.162;2023-04-09T02:41:08;36.67;;;27.10;;
49834;SDS011;35729;52.090;13.162;2023-04-09T02:43:36;42.67;;;29.48;;
49834;SDS011;35729;52.090;13.162;2023-04-09T02:46:05;39.75;;;28.15;;
49834;SDS011;35729;52.090;13.162;2023-04-09T02:48:34;41.05;;;28.40;;
49834;SDS011;35729;52.090;13.162;2023-04-09T02:51:06;41.72;;;28.23;;
49834;SDS011;35729;52.090;13.162;2023-04-09T02:53:35;41.00;;;28.45;;
49834;SDS011;35729;52.090;13.162;2023-04-09T02:56:05;43.65;;;29.75;;
49834;SDS011;35729;52.090;13.162;2023-04-09T02:58:33;43.53;;;29.60;;
49834;SDS011;35729;52.090;13.162;2023-04-09T03:01:02;43.25;;;29.70;;
49834;SDS011;35729;52.090;13.162;2023-04-09T03:03:30;43.50;;;28.52;;
49834;SDS011;35729;52.090;13.162;2023-04-09T03:05:59;43.47;;;29.00;;
49834;SDS011;35729;52.090;13.162;2023-04-09T03:08:30;42.13;;;28.85;;
49834;SDS011;35729;52.090;13.162;2023-04-09T03:10:58;40.72;;;28.13;;
49834;SDS011;35729;52.090;13.162;2023-04-09T03:13:27;44.13;;;29.23;;
49834;SDS011;35729;52.090;13.162;2023-04-09T03:15:55;45.10;;;30.77;;
49834;SDS011;35729;52.090;13.162;2023-04-09T03:18:24;49.25;;;30.80;;
49834;SDS011;35729;52.090;13.162;2023-04-09T03:20:52;54.08;;;33.83;;
49834;SDS011;35729;52.090;13.162;2023-04-09T03:23:21;47.65;;;30.20;;
49834;SDS011;35729;52.090;13.162;2023-04-09T03:26:01;49.05;;;30.95;;
49834;SDS011;35729;52.090;13.162;2023-04-09T03:28:29;46.80;;;30.00;;
49834;SDS011;35729;52.090;13.162;2023-04-09T03:30:58;47.55;;;31.58;;
49834;SDS011;35729;52.090;13.162;2023-04-09T03:33:26;51.42;;;32.72;;
49834;SDS011;35729;52.090;13.162;2023-04-09T03:35:55;49.15;;;32.40;;
49834;SDS011;35729;52.090;13.162;2023-04-09T03:38:23;46.33;;;30.55;;
49834;SDS011;35729;52.090;13.162;2023-04-09T03:40:51;46.65;;;30.65;;
49834;SDS011;35729;52.090;13.162;2023-04-09T03:43:22;47.92;;;31.45;;
49834;SDS011;35729;52.090;13.162;2023-04-09T03:45:51;47.03;;;30.85;;
49834;SDS011;35729;52.090;13.162;2023-04-09T03:48:19;50.08;;;31.48;;
49834;SDS011;35729;52.090;13.162;2023-04-09T03:50:48;49.92;;;32.08;;
49834;SDS011;35729;52.090;13.162;2023-04-09T03:53:17;48.50;;;31.65;;
49834;SDS011;35729;52.090;13.162;2023-04-09T03:55:46;51.55;;;33.05;;
49834;SDS011;35729;52.090;13.162;2023-04-09T03:58:14;55.55;;;33.25;;
49834;SDS011;35729;52.090;13.162;2023-04-09T04:00:45;54.10;;;33.47;;
49834;SDS011;35729;52.090;13.162;2023-04-09T04:03:14;67.18;;;37.80;;
49834;SDS011;35729;52.090;13.162;2023-04-09T04:05:42;74.68;;;40.08;;
49834;SDS011;35729;52.090;13.162;2023-04-09T04:08:11;64.90;;;37.60;;
49834;SDS011;35729;52.090;13.162;2023-04-09T04:10:39;57.30;;;34.40;;
49834;SDS011;35729;52.090;13.162;2023-04-09T04:13:08;58.05;;;34.47;;
49834;SDS011;35729;52.090;13.162;2023-04-09T04:15:38;62.88;;;36.47;;
49834;SDS011;35729;52.090;13.162;2023-04-09T04:18:09;57.33;;;34.08;;
49834;SDS011;35729;52.090;13.162;2023-04-09T04:20:38;52.53;;;31.65;;
49834;SDS011;35729;52.090;13.162;2023-04-09T04:23:06;52.33;;;34.03;;
49834;SDS011;35729;52.090;13.162;2023-04-09T04:25:35;53.67;;;31.85;;
49834;SDS011;35729;52.090;13.162;2023-04-09T04:28:03;52.28;;;31.50;;
49834;SDS011;35729;52.090;13.162;2023-04-09T04:30:32;53.47;;;33.00;;
49834;SDS011;35729;52.090;13.162;2023-04-09T04:33:00;54.83;;;32.33;;
49834;SDS011;35729;52.090;13.162;2023-04-09T04:35:31;55.10;;;33.65;;
49834;SDS011;35729;52.090;13.162;2023-04-09T04:37:59;56.17;;;33.35;;
49834;SDS011;35729;52.090;13.162;2023-04-09T04:40:28;59.10;;;34.58;;
49834;SDS011;35729;52.090;13.162;2023-04-09T04:42:56;54.50;;;33.30;;
49834;SDS011;35729;52.090;13.162;2023-04-09T04:45:25;54.20;;;34.08;;
49834;SDS011;35729;52.090;13.162;2023-04-09T04:47:53;56.10;;;33.08;;
49834;SDS011;35729;52.090;13.162;2023-04-09T04:50:21;56.95;;;33.83;;
49834;SDS011;35729;52.090;13.162;2023-04-09T04:52:52;53.90;;;32.35;;
49834;SDS011;35729;52.090;13.162;2023-04-09T04:55:21;58.30;;;35.20;;
49834;SDS011;35729;52.090;13.162;2023-04-09T04:57:49;67.63;;;38.90;;
49834;SDS011;35729;52.090;13.162;2023-04-09T05:00:19;219.18;;;110.03;;
49834;SDS011;35729;52.090;13.162;2023-04-09T05:02:47;73.53;;;40.85;;
49834;SDS011;35729;52.090;13.162;2023-04-09T05:05:16;65.55;;;37.55;;
49834;SDS011;35729;52.090;13.162;2023-04-09T05:07:44;61.30;;;37.67;;
49834;SDS011;35729;52.090;13.162;2023-04-09T05:10:15;62.80;;;36.72;;
49834;SDS011;35729;52.090;13.162;2023-04-09T05:12:44;59.13;;;35.53;;
49834;SDS011;35729;52.090;13.162;2023-04-09T05:15:13;56.20;;;32.92;;
49834;SDS011;35729;52.090;13.162;2023-04-09T05:17:42;58.28;;;34.25;;
49834;SDS011;35729;52.090;13.162;2023-04-09T05:20:10;52.33;;;32.53;;
49834;SDS011;35729;52.090;13.162;2023-04-09T05:22:39;54.50;;;32.50;;
49834;SDS011;35729;52.090;13.162;2023-04-09T05:25:08;52.33;;;32.55;;
49834;SDS011;35729;52.090;13.162;2023-04-09T05:27:42;51.95;;;33.10;;
49834;SDS011;35729;52.090;13.162;2023-04-09T05:30:11;51.47;;;32.08;;
49834;SDS011;35729;52.090;13.162;2023-04-09T05:32:39;53.05;;;32.10;;
49834;SDS011;35729;52.090;13.162;2023-04-09T05:35:15;58.75;;;33.22;;
49834;SDS011;35729;52.090;13.162;2023-04-09T05:37:43;58.63;;;34.55;;
49834;SDS011;35729;52.090;13.162;2023-04-09T05:40:12;55.58;;;32.03;;
49834;SDS011;35729;52.090;13.162;2023-04-09T05:42:43;57.33;;;33.90;;
49834;SDS011;35729;52.090;13.162;2023-04-09T05:45:11;56.90;;;34.22;;
49834;SDS011;35729;52.090;13.162;2023-04-09T05:47:40;60.45;;;35.40;;
49834;SDS011;35729;52.090;13.162;2023-04-09T05:50:15;60.20;;;35.50;;
49834;SDS011;35729;52.090;13.162;2023-04-09T05:52:43;63.38;;;35.50;;
49834;SDS011;35729;52.090;13.162;2023-04-09T05:55:12;63.25;;;36.45;;
49834;SDS011;35729;52.090;13.162;2023-04-09T05:57:43;67.63;;;38.97;;
49834;SDS011;35729;52.090;13.162;2023-04-09T06:00:12;73.53;;;41.45;;
49834;SDS011;35729;52.090;13.162;2023-04-09T06:02:43;71.47;;;41.28;;
49834;SDS011;35729;52.090;13.162;2023-04-09T06:05:11;65.88;;;40.40;;
49834;SDS011;35729;52.090;13.162;2023-04-09T06:07:40;68.88;;;39.83;;
49834;SDS011;35729;52.090;13.162;2023-04-09T06:10:08;62.72;;;38.05;;
49834;SDS011;35729;52.090;13.162;2023-04-09T06:12:37;63.88;;;36.95;;
49834;SDS011;35729;52.090;13.162;2023-04-09T06:15:08;70.50;;;40.28;;
49834;SDS011;35729;52.090;13.162;2023-04-09T06:17:37;64.47;;;39.88;;
49834;SDS011;35729;52.090;13.162;2023-04-09T06:20:06;69.97;;;40.25;;
49834;SDS011;35729;52.090;13.162;2023-04-09T06:22:35;68.63;;;41.50;;
49834;SDS011;35729;52.090;13.162;2023-04-09T06:25:04;64.55;;;37.75;;
49834;SDS011;35729;52.090;13.162;2023-04-09T06:27:33;65.53;;;38.30;;
49834;SDS011;35729;52.090;13.162;2023-04-09T06:30:02;65.90;;;40.90;;
49834;SDS011;35729;52.090;13.162;2023-04-09T06:32:56;69.20;;;39.83;;
49834;SDS011;35729;52.090;13.162;2023-04-09T06:35:24;74.40;;;42.30;;
49834;SDS011;35729;52.090;13.162;2023-04-09T06:37:53;71.63;;;42.53;;
49834;SDS011;35729;52.090;13.162;2023-04-09T06:40:21;80.50;;;44.28;;
49834;SDS011;35729;52.090;13.162;2023-04-09T06:42:50;85.43;;;47.35;;
49834;SDS011;35729;52.090;13.162;2023-04-09T06:45:18;72.47;;;42.47;;
49834;SDS011;35729;52.090;13.162;2023-04-09T06:47:47;76.50;;;44.42;;
49834;SDS011;35729;52.090;13.162;2023-04-09T06:50:24;76.65;;;44.35;;
49834;SDS011;35729;52.090;13.162;2023-04-09T06:52:53;73.40;;;43.28;;
49834;SDS011;35729;52.090;13.162;2023-04-09T06:55:22;70.10;;;43.10;;
49834;SDS011;35729;52.090;13.162;2023-04-09T06:57:51;73.45;;;42.95;;
49834;SDS011;35729;52.090;13.162;2023-04-09T07:00:19;73.15;;;42.55;;
49834;SDS011;35729;52.090;13.162;2023-04-09T07:02:47;70.00;;;43.22;;
49834;SDS011;35729;52.090;13.162;2023-04-09T07:05:17;69.95;;;42.00;;
49834;SDS011;35729;52.090;13.162;2023-04-09T07:07:48;65.50;;;40.80;;
49834;SDS011;35729;52.090;13.162;2023-04-09T07:10:16;63.95;;;40.30;;
49834;SDS011;35729;52.090;13.162;2023-04-09T07:12:45;60.35;;;38.85;;
49834;SDS011;35729;52.090;13.162;2023-04-09T07:15:13;61.22;;;38.63;;
49834;SDS011;35729;52.090;13.162;2023-04-09T07:17:42;57.72;;;38.40;;
49834;SDS011;35729;52.090;13.162;2023-04-09T07:20:10;57.50;;;36.53;;
49834;SDS011;35729;52.090;13.162;2023-04-09T07:22:39;54.95;;;36.15;;
49834;SDS011;35729;52.090;13.162;2023-04-09T07:25:11;58.60;;;36.80;;
49834;SDS011;35729;52.090;13.162;2023-04-09T07:27:39;45.55;;;31.52;;
49834;SDS011;35729;52.090;13.162;2023-04-09T07:30:08;48.53;;;31.75;;
49834;SDS011;35729;52.090;13.162;2023-04-09T07:32:37;51.10;;;33.78;;
49834;SDS011;35729;52.090;13.162;2023-04-09T07:35:06;47.13;;;30.65;;
49834;SDS011;35729;52.090;13.162;2023-04-09T07:37:36;46.60;;;31.52;;
49834;SDS011;35729;52.090;13.162;2023-04-09T07:40:05;41.45;;;28.50;;
49834;SDS011;35729;52.090;13.162;2023-04-09T07:42:38;41.40;;;28.83;;
49834;SDS011;35729;52.090;13.162;2023-04-09T07:45:07;39.58;;;28.58;;
49834;SDS011;35729;52.090;13.162;2023-04-09T07:47:42;39.63;;;26.02;;
49834;SDS011;35729;52.090;13.162;2023-04-09T07:50:10;38.17;;;26.90;;
49834;SDS011;35729;52.090;13.162;2023-04-09T07:52:39;43.15;;;30.13;;
49834;SDS011;35729;52.090;13.162;2023-04-09T07:55:08;41.42;;;28.85;;
49834;SDS011;35729;52.090;13.162;2023-04-09T07:57:39;38.25;;;26.88;;
49834;SDS011;35729;52.090;13.162;2023-04-09T08:00:09;36.25;;;25.40;;
49834;SDS011;35729;52.090;13.162;2023-04-09T08:02:39;36.50;;;25.25;;
49834;SDS011;35729;52.090;13.162;2023-04-09T08:05:08;31.30;;;22.88;;
49834;SDS011;35729;52.090;13.162;2023-04-09T08:07:36;33.53;;;24.48;;
49834;SDS011;35729;52.090;13.162;2023-04-09T08:10:05;31.35;;;21.30;;
49834;SDS011;35729;52.090;13.162;2023-04-09T08:12:41;30.67;;;21.67;;
49834;SDS011;35729;52.090;13.162;2023-04-09T08:15:10;35.92;;;24.50;;
49834;SDS011;35729;52.090;13.162;2023-04-09T08:17:38;32.28;;;22.35;;
49834;SDS011;35729;52.090;13.162;2023-04-09T08:20:07;39.30;;;26.17;;
49834;SDS011;35729;52.090;13.162;2023-04-09T08:22:36;26.65;;;19.55;;
49834;SDS011;35729;52.090;13.162;2023-04-09T08:25:06;29.73;;;20.40;;
49834;SDS011;35729;52.090;13.162;2023-04-09T08:27:35;28.95;;;20.48;;
49834;SDS011;35729;52.090;13.162;2023-04-09T08:30:07;29.52;;;21.48;;
49834;SDS011;35729;52.090;13.162;2023-04-09T08:32:36;28.10;;;21.48;;
49834;SDS011;35729;52.090;13.162;2023-04-09T08:35:05;31.95;;;23.75;;
49834;SDS011;35729;52.090;13.162;2023-04-09T08:37:34;30.17;;;22.10;;
49834;SDS011;35729;52.090;13.162;2023-04-09T08:40:04;30.73;;;22.08;;
49834;SDS011;35729;52.090;13.162;2023-04-09T08:42:34;28.20;;;19.80;;
49834;SDS011;35729;52.090;13.162;2023-04-09T08:45:06;26.73;;;19.35;;
49834;SDS011;35729;52.090;13.162;2023-04-09T08:47:36;31.85;;;22.52;;
49834;SDS011;35729;52.090;13.162;2023-04-09T08:50:06;26.73;;;20.08;;
49834;SDS011;35729;52.090;13.162;2023-04-09T08:52:35;30.38;;;22.35;;
49834;SDS011;35729;52.090;13.162;2023-04-09T08:55:05;33.75;;;23.85;;
49834;SDS011;35729;52.090;13.162;2023-04-09T08:57:38;34.58;;;24.23;;
49834;SDS011;35729;52.090;13.162;2023-04-09T09:00:10;30.77;;;21.98;;
49834;SDS011;35729;52.090;13.162;2023-04-09T09:02:41;25.60;;;19.75;;
49834;SDS011;35729;52.090;13.162;2023-04-09T09:05:34;24.85;;;18.80;;
49834;SDS011;35729;52.090;13.162;2023-04-09T09:08:03;28.10;;;20.63;;
49834;SDS011;35729;52.090;13.162;2023-04-09T09:10:39;27.92;;;20.58;;
49834;SDS011;35729;52.090;13.162;2023-04-09T09:13:15;28.38;;;20.90;;
49834;SDS011;35729;52.090;13.162;2023-04-09T09:15:47;30.33;;;21.52;;
49834;SDS011;35729;52.090;13.162;2023-04-09T09:18:19;29.75;;;21.30;;
49834;SDS011;35729;52.090;13.162;2023-04-09T09:20:48;29.75;;;21.00;;
49834;SDS011;35729;52.090;13.162;2023-04-09T09:23:16;27.27;;;21.67;;
49834;SDS011;35729;52.090;13.162;2023-04-09T09:26:09;31.70;;;23.42;;
49834;SDS011;35729;52.090;13.162;2023-04-09T09:28:40;30.65;;;22.38;;
49834;SDS011;35729;52.090;13.162;2023-04-09T09:31:11;32.67;;;24.00;;
49834;SDS011;35729;52.090;13.162;2023-04-09T09:33:41;35.15;;;26.42;;
49834;SDS011;35729;52.090;13.162;2023-04-09T09:36:10;32.92;;;23.92;;
49834;SDS011;35729;52.090;13.162;2023-04-09T09:38:49;29.50;;;22.15;;
49834;SDS011;35729;52.090;13.162;2023-04-09T09:41:20;29.38;;;22.52;;
49834;SDS011;35729;52.090;13.162;2023-04-09T09:43:49;30.23;;;21.98;;
49834;SDS011;35729;52.090;13.162;2023-04-09T09:46:20;33.40;;;24.88;;
49834;SDS011;35729;52.090;13.162;2023-04-09T09:48:49;32.53;;;22.23;;
49834;SDS011;35729;52.090;13.162;2023-04-09T09:51:17;32.20;;;23.15;;
49834;SDS011;35729;52.090;13.162;2023-04-09T09:53:50;29.27;;;21.45;;
49834;SDS011;35729;52.090;13.162;2023-04-09T09:56:22;33.28;;;24.02;;
49834;SDS011;35729;52.090;13.162;2023-04-09T09:59:00;28.10;;;21.02;;
49834;SDS011;35729;52.090;13.162;2023-04-09T10:01:36;29.52;;;20.77;;
49834;SDS011;35729;52.090;13.162;2023-04-09T10:04:05;27.25;;;20.58;;
49834;SDS011;35729;52.090;13.162;2023-04-09T10:06:37;24.90;;;19.10;;
49834;SDS011;35729;52.090;13.162;2023-04-09T10:09:07;26.63;;;20.15;;
49834;SDS011;35729;52.090;13.162;2023-04-09T10:11:36;26.40;;;19.92;;
49834;SDS011;35729;52.090;13.162;2023-04-09T10:14:06;23.42;;;18.20;;
49834;SDS011;35729;52.090;13.162;2023-04-09T10:16:38;22.60;;;17.80;;
49834;SDS011;35729;52.090;13.162;2023-04-09T10:19:06;26.23;;;19.10;;
49834;SDS011;35729;52.090;13.162;2023-04-09T10:21:39;28.80;;;20.48;;
49834;SDS011;35729;52.090;13.162;2023-04-09T10:26:40;21.27;;;16.42;;
49834;SDS011;35729;52.090;13.162;2023-04-09T10:29:11;22.73;;;16.58;;
49834;SDS011;35729;52.090;13.162;2023-04-09T10:31:50;24.90;;;18.60;;
49834;SDS011;35729;52.090;13.162;2023-04-09T10:34:20;20.52;;;16.23;;
49834;SDS011;35729;52.090;13.162;2023-04-09T10:36:49;21.75;;;16.23;;
49834;SDS011;35729;52.090;13.162;2023-04-09T10:39:19;21.70;;;16.67;;
49834;SDS011;35729;52.090;13.162;2023-04-09T10:41:48;21.90;;;16.70;;
49834;SDS011;35729;52.090;13.162;2023-04-09T10:44:20;18.40;;;14.70;;
49834;SDS011;35729;52.090;13.162;2023-04-09T10:46:51;17.02;;;14.15;;
49834;SDS011;35729;52.090;13.162;2023-04-09T10:49:21;19.02;;;14.65;;
49834;SDS011;35729;52.090;13.162;2023-04-09T10:52:00;17.58;;;13.23;;
49834;SDS011;35729;52.090;13.162;2023-04-09T10:54:42;18.58;;;14.32;;
49834;SDS011;35729;52.090;13.162;2023-04-09T10:57:15;25.38;;;16.17;;
49834;SDS011;35729;52.090;13.162;2023-04-09T10:59:46;20.13;;;15.02;;
49834;SDS011;35729;52.090;13.162;2023-04-09T11:05:27;18.98;;;14.18;;
49834;SDS011;35729;52.090;13.162;2023-04-09T11:08:03;19.23;;;15.20;;
49834;SDS011;35729;52.090;13.162;2023-04-09T11:10:33;18.13;;;13.63;;
49834;SDS011;35729;52.090;13.162;2023-04-09T11:13:02;17.45;;;13.30;;
49834;SDS011;35729;52.090;13.162;2023-04-09T11:15:33;16.33;;;13.15;;
49834;SDS011;35729;52.090;13.162;2023-04-09T11:18:05;16.60;;;12.85;;
49834;SDS011;35729;52.090;13.162;2023-04-09T11:20:34;19.27;;;14.68;;
49834;SDS011;35729;52.090;13.162;2023-04-09T11:23:03;18.52;;;15.07;;
49834;SDS011;35729;52.090;13.162;2023-04-09T11:25:32;21.60;;;16.45;;
49834;SDS011;35729;52.090;13.162;2023-04-09T11:28:02;21.92;;;16.88;;
49834;SDS011;35729;52.090;13.162;2023-04-09T11:30:32;21.55;;;16.52;;
49834;SDS011;35729;52.090;13.162;2023-04-09T11:33:01;19.75;;;15.82;;
49834;SDS011;35729;52.090;13.162;2023-04-09T11:35:32;22.17;;;16.75;;
49834;SDS011;35729;52.090;13.162;2023-04-09T11:38:06;22.50;;;18.67;;
49834;SDS011;35729;52.090;13.162;2023-04-09T11:40:35;20.88;;;17.23;;
49834;SDS011;35729;52.090;13.162;2023-04-09T11:45:44;20.20;;;16.17;;
49834;SDS011;35729;52.090;13.162;2023-04-09T11:48:14;23.05;;;18.50;;
49834;SDS011;35729;52.090;13.162;2023-04-09T11:50:45;23.25;;;18.05;;
49834;SDS011;35729;52.090;13.162;2023-04-09T11:53:14;21.67;;;16.45;;
49834;SDS011;35729;52.090;13.162;2023-04-09T11:55:45;23.10;;;18.88;;
49834;SDS011;35729;52.090;13.162;2023-04-09T11:58:15;23.17;;;18.27;;
49834;SDS011;35729;52.090;13.162;2023-04-09T12:00:43;21.25;;;18.10;;
49834;SDS011;35729;52.090;13.162;2023-04-09T12:03:12;22.05;;;17.42;;
49834;SDS011;35729;52.090;13.162;2023-04-09T12:05:43;22.40;;;18.25;;
49834;SDS011;35729;52.090;13.162;2023-04-09T12:08:15;21.05;;;17.40;;
49834;SDS011;35729;52.090;13.162;2023-04-09T12:10:43;20.52;;;16.83;;
49834;SDS011;35729;52.090;13.162;2023-04-09T12:13:12;19.42;;;16.42;;
49834;SDS011;35729;52.090;13.162;2023-04-09T12:15:41;18.73;;;16.27;;
49834;SDS011;35729;52.090;13.162;2023-04-09T12:18:11;20.73;;;15.98;;
49834;SDS011;35729;52.090;13.162;2023-04-09T12:20:41;16.48;;;14.05;;
49834;SDS011;35729;52.090;13.162;2023-04-09T12:23:14;17.80;;;14.45;;
49834;SDS011;35729;52.090;13.162;2023-04-09T12:25:43;16.20;;;13.68;;
49834;SDS011;35729;52.090;13.162;2023-04-09T12:28:12;16.48;;;13.05;;
49834;SDS011;35729;52.090;13.162;2023-04-09T12:30:42;17.80;;;14.18;;
49834;SDS011;35729;52.090;13.162;2023-04-09T12:33:12;14.73;;;13.00;;
49834;SDS011;35729;52.090;13.162;2023-04-09T12:35:40;15.18;;;12.70;;
49834;SDS011;35729;52.090;13.162;2023-04-09T12:38:09;16.08;;;12.95;;
49834;SDS011;35729;52.090;13.162;2023-04-09T12:40:40;16.02;;;12.88;;
49834;SDS011;35729;52.090;13.162;2023-04-09T12:43:08;14.77;;;12.30;;
49834;SDS011;35729;52.090;13.162;2023-04-09T12:45:37;12.70;;;10.70;;
49834;SDS011;35729;52.090;13.162;2023-04-09T12:48:05;13.25;;;11.30;;
49834;SDS011;35729;52.090;13.162;2023-04-09T12:50:34;13.23;;;11.35;;
49834;SDS011;35729;52.090;13.162;2023-04-09T12:53:02;14.25;;;11.90;;
49834;SDS011;35729;52.090;13.162;2023-04-09T12:55:30;13.57;;;11.27;;
49834;SDS011;35729;52.090;13.162;2023-04-09T12:58:02;13.13;;;11.75;;
49834;SDS011;35729;52.090;13.162;2023-04-09T13:00:30;12.00;;;10.73;;
49834;SDS011;35729;52.090;13.162;2023-04-09T13:02:59;10.48;;;9.38;;
49834;SDS011;35729;52.090;13.162;2023-04-09T13:05:27;11.43;;;10.23;;
49834;SDS011;35729;52.090;13.162;2023-04-09T13:07:59;11.45;;;9.88;;
49834;SDS011;35729;52.090;13.162;2023-04-09T13:10:28;12.10;;;10.40;;
49834;SDS011;35729;52.090;13.162;2023-04-09T13:12:57;10.95;;;9.75;;
49834;SDS011;35729;52.090;13.162;2023-04-09T13:15:28;10.88;;;9.45;;
49834;SDS011;35729;52.090;13.162;2023-04-09T13:17:56;10.80;;;8.65;;
49834;SDS011;35729;52.090;13.162;2023-04-09T13:20:25;12.40;;;9.63;;
49834;SDS011;35729;52.090;13.162;2023-04-09T13:22:53;10.02;;;9.02;;
49834;SDS011;35729;52.090;13.162;2023-04-09T13:25:22;11.07;;;9.23;;
49834;SDS011;35729;52.090;13.162;2023-04-09T13:27:50;9.13;;;8.20;;
49834;SDS011;35729;52.090;13.162;2023-04-09T13:30:20;8.90;;;8.00;;
49834;SDS011;35729;52.090;13.162;2023-04-09T13:32:51;10.38;;;9.27;;
49834;SDS011;35729;52.090;13.162;2023-04-09T13:35:19;10.90;;;9.57;;
49834;SDS011;35729;52.090;13.162;2023-04-09T13:37:48;11.57;;;8.98;;
49834;SDS011;35729;52.090;13.162;2023-04-09T13:40:16;12.05;;;10.45;;
49834;SDS011;35729;52.090;13.162;2023-04-09T13:42:45;10.63;;;9.52;;
49834;SDS011;35729;52.090;13.162;2023-04-09T13:45:13;11.52;;;9.63;;
49834;SDS011;35729;52.090;13.162;2023-04-09T13:47:42;10.15;;;9.07;;
49834;SDS011;35729;52.090;13.162;2023-04-09T13:50:13;9.82;;;8.73;;
49834;SDS011;35729;52.090;13.162;2023-04-09T13:52:42;12.73;;;10.43;;
49834;SDS011;35729;52.090;13.162;2023-04-09T13:55:10;12.05;;;9.25;;
49834;SDS011;35729;52.090;13.162;2023-04-09T13:57:38;10.73;;;9.57;;
49834;SDS011;35729;52.090;13.162;2023-04-09T14:00:07;9.93;;;8.75;;
49834;SDS011;35729;52.090;13.162;2023-04-09T14:02:36;9.98;;;8.85;;
49834;SDS011;35729;52.090;13.162;2023-04-09T14:05:06;10.00;;;9.00;;
49834;SDS011;35729;52.090;13.162;2023-04-09T14:07:37;11.15;;;9.98;;
49834;SDS011;35729;52.090;13.162;2023-04-09T14:10:06;10.93;;;9.75;;
49834;SDS011;35729;52.090;13.162;2023-04-09T14:12:35;10.77;;;9.57;;
49834;SDS011;35729;52.090;13.162;2023-04-09T14:15:04;11.00;;;9.10;;
49834;SDS011;35729;52.090;13.162;2023-04-09T14:17:34;10.75;;;9.43;;
49834;SDS011;35729;52.090;13.162;2023-04-09T14:20:03;10.15;;;8.63;;
49834;SDS011;35729;52.090;13.162;2023-04-09T14:22:31;10.65;;;9.55;;
49834;SDS011;35729;52.090;13.162;2023-04-09T14:25:03;10.65;;;9.13;;
49834;SDS011;35729;52.090;13.162;2023-04-09T14:27:32;10.07;;;8.75;;
49834;SDS011;35729;52.090;13.162;2023-04-09T14:30:00;10.38;;;9.25;;
49834;SDS011;35729;52.090;13.162;2023-04-09T14:32:29;8.98;;;8.07;;
49834;SDS011;35729;52.090;13.162;2023-04-09T14:34:57;9.70;;;8.70;;
49834;SDS011;35729;52.090;13.162;2023-04-09T14:37:26;9.55;;;8.57;;